sensor_id;sensor_type;location;lat;lon;timestamp;P1;durP1;ratioP1;P2;durP2;ratioP2
32505;SDS011;18955;51.224;8.482;2023-07-22T00:01:54;9.25;;;5.85;;
32505;SDS011;18955;51.224;8.482;2023-07-22T00:04:20;15.55;;;8.38;;
32505;SDS011;18955;51.224;8.482;2023-07-22T00:06:46;12.75;;;8.45;;
32505;SDS011;18955;51.224;8.482;2023-07-22T00:09:12;8.05;;;5.90;;
32505;SDS011;18955;51.224;8.482;2023-07-22T00:11:38;15.35;;;7.95;;
32505;SDS011;18955;51.224;8.482;2023-07-22T00:14:04;10.05;;;8.40;;
32505;SDS011;18955;51.224;8.482;2023-07-22T00:18:57;13.90;;;8.60;;
32505;SDS011;18955;51.224;8.482;2023-07-22T00:21:23;9.90;;;7.85;;
32505;SDS011;18955;51.224;8.482;2023-07-22T00:23:50;10.80;;;7.35;;
32505;SDS011;18955;51.224;8.482;2023-07-22T00:26:16;12.25;;;8.40;;
32505;SDS011;18955;51.224;8.482;2023-07-22T00:28:42;9.60;;;5.97;;
32505;SDS011;18955;51.224;8.482;2023-07-22T00:31:09;12.55;;;8.50;;
32505;SDS011;18955;51.224;8.482;2023-07-22T00:33:35;14.30;;;9.82;;
32505;SDS011;18955;51.224;8.482;2023-07-22T00:36:01;12.27;;;6.07;;
32505;SDS011;18955;51.224;8.482;2023-07-22T00:38:27;12.25;;;9.13;;
32505;SDS011;18955;51.224;8.482;2023-07-22T00:43:20;13.85;;;8.00;;
32505;SDS011;18955;51.224;8.482;2023-07-22T00:45:47;11.77;;;8.13;;
32505;SDS011;18955;51.224;8.482;2023-07-22T00:48:13;11.40;;;8.30;;
32505;SDS011;18955;51.224;8.482;2023-07-22T00:50:41;15.18;;;8.32;;
32505;SDS011;18955;51.224;8.482;2023-07-22T00:53:07;12.73;;;8.43;;
32505;SDS011;18955;51.224;8.482;2023-07-22T00:55:33;12.55;;;8.35;;
32505;SDS011;18955;51.224;8.482;2023-07-22T00:58:01;15.27;;;8.38;;
32505;SDS011;18955;51.224;8.482;2023-07-22T01:00:27;12.55;;;7.45;;
32505;SDS011;18955;51.224;8.482;2023-07-22T01:02:53;8.65;;;5.82;;
32505;SDS011;18955;51.224;8.482;2023-07-22T01:05:20;12.98;;;8.00;;
32505;SDS011;18955;51.224;8.482;2023-07-22T01:07:46;11.60;;;7.30;;
32505;SDS011;18955;51.224;8.482;2023-07-22T01:10:12;10.77;;;5.80;;
32505;SDS011;18955;51.224;8.482;2023-07-22T01:12:40;14.02;;;7.30;;
32505;SDS011;18955;51.224;8.482;2023-07-22T01:15:06;10.57;;;7.47;;
32505;SDS011;18955;51.224;8.482;2023-07-22T01:20:00;11.35;;;7.55;;
32505;SDS011;18955;51.224;8.482;2023-07-22T01:22:28;11.85;;;7.40;;
32505;SDS011;18955;51.224;8.482;2023-07-22T01:24:55;10.93;;;7.97;;
32505;SDS011;18955;51.224;8.482;2023-07-22T01:27:22;11.57;;;7.50;;
32505;SDS011;18955;51.224;8.482;2023-07-22T01:29:52;10.85;;;8.05;;
32505;SDS011;18955;51.224;8.482;2023-07-22T01:32:18;11.73;;;7.70;;
32505;SDS011;18955;51.224;8.482;2023-07-22T01:34:45;11.23;;;7.35;;
32505;SDS011;18955;51.224;8.482;2023-07-22T01:37:11;8.60;;;5.70;;
32505;SDS011;18955;51.224;8.482;2023-07-22T01:39:38;12.32;;;7.65;;
32505;SDS011;18955;51.224;8.482;2023-07-22T01:42:04;17.20;;;8.35;;
32505;SDS011;18955;51.224;8.482;2023-07-22T01:44:30;14.52;;;7.60;;
32505;SDS011;18955;51.224;8.482;2023-07-22T01:46:56;7.90;;;5.10;;
32505;SDS011;18955;51.224;8.482;2023-07-22T01:49:23;10.75;;;8.20;;
32505;SDS011;18955;51.224;8.482;2023-07-22T01:51:50;15.30;;;8.48;;
32505;SDS011;18955;51.224;8.482;2023-07-22T01:54:16;16.98;;;9.18;;
32505;SDS011;18955;51.224;8.482;2023-07-22T01:56:42;12.88;;;9.05;;
32505;SDS011;18955;51.224;8.482;2023-07-22T01:59:08;15.70;;;9.73;;
32505;SDS011;18955;51.224;8.482;2023-07-22T02:04:01;18.02;;;9.38;;
32505;SDS011;18955;51.224;8.482;2023-07-22T02:06:27;16.90;;;9.75;;
32505;SDS011;18955;51.224;8.482;2023-07-22T02:08:54;15.68;;;9.73;;
32505;SDS011;18955;51.224;8.482;2023-07-22T02:11:21;16.02;;;9.35;;
32505;SDS011;18955;51.224;8.482;2023-07-22T02:13:47;14.07;;;9.25;;
32505;SDS011;18955;51.224;8.482;2023-07-22T02:16:14;15.90;;;10.55;;
32505;SDS011;18955;51.224;8.482;2023-07-22T02:18:40;17.92;;;10.20;;
32505;SDS011;18955;51.224;8.482;2023-07-22T02:21:06;18.95;;;10.43;;
32505;SDS011;18955;51.224;8.482;2023-07-22T02:23:32;10.75;;;6.70;;
32505;SDS011;18955;51.224;8.482;2023-07-22T02:25:59;15.45;;;9.82;;
32505;SDS011;18955;51.224;8.482;2023-07-22T02:28:26;20.88;;;9.68;;
32505;SDS011;18955;51.224;8.482;2023-07-22T02:30:53;15.70;;;9.40;;
32505;SDS011;18955;51.224;8.482;2023-07-22T02:35:47;13.88;;;9.57;;
32505;SDS011;18955;51.224;8.482;2023-07-22T02:38:13;16.75;;;10.25;;
32505;SDS011;18955;51.224;8.482;2023-07-22T02:40:40;18.45;;;10.23;;
32505;SDS011;18955;51.224;8.482;2023-07-22T02:43:06;16.65;;;10.18;;
32505;SDS011;18955;51.224;8.482;2023-07-22T02:45:33;19.58;;;10.68;;
32505;SDS011;18955;51.224;8.482;2023-07-22T02:48:00;15.73;;;10.07;;
32505;SDS011;18955;51.224;8.482;2023-07-22T02:50:26;13.75;;;9.73;;
32505;SDS011;18955;51.224;8.482;2023-07-22T02:52:52;17.05;;;10.50;;
32505;SDS011;18955;51.224;8.482;2023-07-22T02:55:20;15.00;;;10.15;;
32505;SDS011;18955;51.224;8.482;2023-07-22T02:57:46;14.65;;;10.18;;
32505;SDS011;18955;51.224;8.482;2023-07-22T03:00:14;18.20;;;9.40;;
32505;SDS011;18955;51.224;8.482;2023-07-22T03:02:52;14.05;;;9.55;;
32505;SDS011;18955;51.224;8.482;2023-07-22T03:05:19;14.90;;;10.07;;
32505;SDS011;18955;51.224;8.482;2023-07-22T03:07:46;13.55;;;9.98;;
32505;SDS011;18955;51.224;8.482;2023-07-22T03:10:12;15.65;;;9.75;;
32505;SDS011;18955;51.224;8.482;2023-07-22T03:12:39;13.25;;;9.98;;
32505;SDS011;18955;51.224;8.482;2023-07-22T03:15:05;13.40;;;7.30;;
32505;SDS011;18955;51.224;8.482;2023-07-22T03:17:35;14.88;;;10.30;;
32505;SDS011;18955;51.224;8.482;2023-07-22T03:20:02;15.93;;;9.93;;
32505;SDS011;18955;51.224;8.482;2023-07-22T03:22:43;16.02;;;9.40;;
32505;SDS011;18955;51.224;8.482;2023-07-22T03:27:36;13.90;;;8.93;;
32505;SDS011;18955;51.224;8.482;2023-07-22T03:30:06;15.73;;;9.65;;
32505;SDS011;18955;51.224;8.482;2023-07-22T03:32:33;16.25;;;8.73;;
32505;SDS011;18955;51.224;8.482;2023-07-22T03:35:00;17.02;;;9.13;;
32505;SDS011;18955;51.224;8.482;2023-07-22T03:37:29;15.20;;;9.70;;
32505;SDS011;18955;51.224;8.482;2023-07-22T03:39:55;15.77;;;9.57;;
32505;SDS011;18955;51.224;8.482;2023-07-22T03:42:22;17.73;;;9.77;;
32505;SDS011;18955;51.224;8.482;2023-07-22T03:44:48;15.13;;;9.35;;
32505;SDS011;18955;51.224;8.482;2023-07-22T03:47:15;15.18;;;10.02;;
32505;SDS011;18955;51.224;8.482;2023-07-22T03:49:41;15.75;;;9.55;;
32505;SDS011;18955;51.224;8.482;2023-07-22T03:52:07;20.08;;;10.05;;
32505;SDS011;18955;51.224;8.482;2023-07-22T03:54:33;10.15;;;6.57;;
32505;SDS011;18955;51.224;8.482;2023-07-22T03:57:00;16.20;;;9.57;;
32505;SDS011;18955;51.224;8.482;2023-07-22T03:59:26;13.02;;;9.30;;
32505;SDS011;18955;51.224;8.482;2023-07-22T04:01:54;12.95;;;9.07;;
32505;SDS011;18955;51.224;8.482;2023-07-22T04:04:20;11.35;;;7.18;;
32505;SDS011;18955;51.224;8.482;2023-07-22T04:06:46;17.27;;;9.38;;
32505;SDS011;18955;51.224;8.482;2023-07-22T04:09:12;13.98;;;9.70;;
32505;SDS011;18955;51.224;8.482;2023-07-22T04:11:38;14.57;;;10.32;;
32505;SDS011;18955;51.224;8.482;2023-07-22T04:14:05;13.63;;;9.02;;
32505;SDS011;18955;51.224;8.482;2023-07-22T04:16:31;11.57;;;6.50;;
32505;SDS011;18955;51.224;8.482;2023-07-22T04:18:57;12.02;;;6.63;;
32505;SDS011;18955;51.224;8.482;2023-07-22T04:21:23;13.65;;;9.23;;
32505;SDS011;18955;51.224;8.482;2023-07-22T04:23:50;13.75;;;9.10;;
32505;SDS011;18955;51.224;8.482;2023-07-22T04:26:16;12.50;;;9.35;;
32505;SDS011;18955;51.224;8.482;2023-07-22T04:28:42;16.17;;;9.60;;
32505;SDS011;18955;51.224;8.482;2023-07-22T04:31:08;15.63;;;9.75;;
32505;SDS011;18955;51.224;8.482;2023-07-22T04:36:01;15.20;;;8.68;;
32505;SDS011;18955;51.224;8.482;2023-07-22T04:38:27;12.52;;;9.10;;
32505;SDS011;18955;51.224;8.482;2023-07-22T04:40:53;12.93;;;8.68;;
32505;SDS011;18955;51.224;8.482;2023-07-22T04:43:20;14.20;;;9.35;;
32505;SDS011;18955;51.224;8.482;2023-07-22T04:45:46;16.50;;;9.40;;
32505;SDS011;18955;51.224;8.482;2023-07-22T04:48:16;13.07;;;9.10;;
32505;SDS011;18955;51.224;8.482;2023-07-22T04:50:45;15.07;;;9.02;;
32505;SDS011;18955;51.224;8.482;2023-07-22T04:53:12;13.25;;;8.75;;
32505;SDS011;18955;51.224;8.482;2023-07-22T04:55:41;12.77;;;8.27;;
32505;SDS011;18955;51.224;8.482;2023-07-22T04:58:07;12.35;;;9.15;;
32505;SDS011;18955;51.224;8.482;2023-07-22T05:00:39;13.75;;;9.23;;
32505;SDS011;18955;51.224;8.482;2023-07-22T05:03:07;12.48;;;8.65;;
32505;SDS011;18955;51.224;8.482;2023-07-22T05:05:33;8.82;;;6.00;;
32505;SDS011;18955;51.224;8.482;2023-07-22T05:08:01;14.10;;;8.73;;
32505;SDS011;18955;51.224;8.482;2023-07-22T05:10:27;11.70;;;8.43;;
32505;SDS011;18955;51.224;8.482;2023-07-22T05:12:54;13.82;;;8.73;;
32505;SDS011;18955;51.224;8.482;2023-07-22T05:15:22;12.65;;;7.72;;
32505;SDS011;18955;51.224;8.482;2023-07-22T05:17:49;12.23;;;8.13;;
32505;SDS011;18955;51.224;8.482;2023-07-22T05:20:15;14.75;;;8.65;;
32505;SDS011;18955;51.224;8.482;2023-07-22T05:22:42;12.20;;;9.32;;
32505;SDS011;18955;51.224;8.482;2023-07-22T05:25:09;20.42;;;10.13;;
32505;SDS011;18955;51.224;8.482;2023-07-22T05:27:35;16.13;;;9.82;;
32505;SDS011;18955;51.224;8.482;2023-07-22T05:30:02;18.75;;;9.23;;
32505;SDS011;18955;51.224;8.482;2023-07-22T05:32:28;13.98;;;9.93;;
32505;SDS011;18955;51.224;8.482;2023-07-22T05:34:58;14.00;;;9.52;;
32505;SDS011;18955;51.224;8.482;2023-07-22T05:37:24;12.90;;;8.73;;
32505;SDS011;18955;51.224;8.482;2023-07-22T05:39:51;16.95;;;10.93;;
32505;SDS011;18955;51.224;8.482;2023-07-22T05:42:17;17.13;;;8.63;;
32505;SDS011;18955;51.224;8.482;2023-07-22T05:44:44;15.65;;;9.65;;
32505;SDS011;18955;51.224;8.482;2023-07-22T05:47:10;14.85;;;9.70;;
32505;SDS011;18955;51.224;8.482;2023-07-22T05:49:36;13.43;;;8.07;;
32505;SDS011;18955;51.224;8.482;2023-07-22T05:52:02;19.55;;;10.85;;
32505;SDS011;18955;51.224;8.482;2023-07-22T05:54:28;16.38;;;11.25;;
32505;SDS011;18955;51.224;8.482;2023-07-22T05:56:55;14.18;;;9.98;;
32505;SDS011;18955;51.224;8.482;2023-07-22T05:59:21;24.90;;;11.10;;
32505;SDS011;18955;51.224;8.482;2023-07-22T06:01:47;18.73;;;10.77;;
32505;SDS011;18955;51.224;8.482;2023-07-22T06:04:13;17.85;;;10.45;;
32505;SDS011;18955;51.224;8.482;2023-07-22T06:06:39;14.48;;;10.07;;
32505;SDS011;18955;51.224;8.482;2023-07-22T06:09:06;15.35;;;10.32;;
32505;SDS011;18955;51.224;8.482;2023-07-22T06:11:32;16.35;;;10.05;;
32505;SDS011;18955;51.224;8.482;2023-07-22T06:13:58;14.52;;;9.02;;
32505;SDS011;18955;51.224;8.482;2023-07-22T06:16:24;17.40;;;10.52;;
32505;SDS011;18955;51.224;8.482;2023-07-22T06:18:50;13.48;;;9.48;;
32505;SDS011;18955;51.224;8.482;2023-07-22T06:21:17;17.00;;;9.88;;
32505;SDS011;18955;51.224;8.482;2023-07-22T06:23:43;16.20;;;9.73;;
32505;SDS011;18955;51.224;8.482;2023-07-22T06:26:09;11.80;;;7.53;;
32505;SDS011;18955;51.224;8.482;2023-07-22T06:28:35;19.05;;;9.52;;
32505;SDS011;18955;51.224;8.482;2023-07-22T06:31:01;13.65;;;7.93;;
32505;SDS011;18955;51.224;8.482;2023-07-22T06:33:27;15.10;;;9.25;;
32505;SDS011;18955;51.224;8.482;2023-07-22T06:35:54;13.43;;;7.07;;
32505;SDS011;18955;51.224;8.482;2023-07-22T06:38:20;15.55;;;8.98;;
32505;SDS011;18955;51.224;8.482;2023-07-22T06:40:46;12.55;;;6.90;;
32505;SDS011;18955;51.224;8.482;2023-07-22T06:43:12;10.60;;;7.63;;
32505;SDS011;18955;51.224;8.482;2023-07-22T06:45:38;15.02;;;9.25;;
32505;SDS011;18955;51.224;8.482;2023-07-22T06:48:04;18.58;;;10.43;;
32505;SDS011;18955;51.224;8.482;2023-07-22T06:50:31;18.80;;;9.88;;
32505;SDS011;18955;51.224;8.482;2023-07-22T06:52:57;19.67;;;10.02;;
32505;SDS011;18955;51.224;8.482;2023-07-22T06:55:23;14.77;;;8.85;;
32505;SDS011;18955;51.224;8.482;2023-07-22T06:57:51;16.88;;;9.15;;
32505;SDS011;18955;51.224;8.482;2023-07-22T07:00:17;15.73;;;9.73;;
32505;SDS011;18955;51.224;8.482;2023-07-22T07:02:44;13.73;;;9.40;;
32505;SDS011;18955;51.224;8.482;2023-07-22T07:05:10;11.90;;;7.03;;
32505;SDS011;18955;51.224;8.482;2023-07-22T07:07:37;13.00;;;8.95;;
32505;SDS011;18955;51.224;8.482;2023-07-22T07:10:03;17.40;;;10.15;;
32505;SDS011;18955;51.224;8.482;2023-07-22T07:12:30;17.98;;;9.25;;
32505;SDS011;18955;51.224;8.482;2023-07-22T07:14:56;14.65;;;9.38;;
32505;SDS011;18955;51.224;8.482;2023-07-22T07:17:22;14.57;;;8.82;;
32505;SDS011;18955;51.224;8.482;2023-07-22T07:19:49;14.30;;;9.07;;
32505;SDS011;18955;51.224;8.482;2023-07-22T07:22:15;16.73;;;9.63;;
32505;SDS011;18955;51.224;8.482;2023-07-22T07:24:42;12.63;;;8.75;;
32505;SDS011;18955;51.224;8.482;2023-07-22T07:27:08;14.25;;;8.90;;
32505;SDS011;18955;51.224;8.482;2023-07-22T07:29:34;14.18;;;9.27;;
32505;SDS011;18955;51.224;8.482;2023-07-22T07:32:00;12.02;;;6.90;;
32505;SDS011;18955;51.224;8.482;2023-07-22T07:34:26;12.20;;;7.78;;
32505;SDS011;18955;51.224;8.482;2023-07-22T07:36:52;14.43;;;9.38;;
32505;SDS011;18955;51.224;8.482;2023-07-22T07:39:19;15.20;;;8.68;;
32505;SDS011;18955;51.224;8.482;2023-07-22T07:41:45;13.45;;;8.85;;
32505;SDS011;18955;51.224;8.482;2023-07-22T07:44:11;14.10;;;8.63;;
32505;SDS011;18955;51.224;8.482;2023-07-22T07:46:37;11.48;;;6.32;;
32505;SDS011;18955;51.224;8.482;2023-07-22T07:49:04;13.32;;;7.18;;
32505;SDS011;18955;51.224;8.482;2023-07-22T07:51:30;12.38;;;6.20;;
32505;SDS011;18955;51.224;8.482;2023-07-22T07:53:57;15.43;;;9.65;;
32505;SDS011;18955;51.224;8.482;2023-07-22T07:56:24;13.73;;;9.48;;
32505;SDS011;18955;51.224;8.482;2023-07-22T07:58:51;14.18;;;9.70;;
32505;SDS011;18955;51.224;8.482;2023-07-22T08:01:19;13.40;;;9.15;;
32505;SDS011;18955;51.224;8.482;2023-07-22T08:03:46;13.75;;;9.20;;
32505;SDS011;18955;51.224;8.482;2023-07-22T08:06:13;13.93;;;8.57;;
32505;SDS011;18955;51.224;8.482;2023-07-22T08:08:39;18.98;;;9.35;;
32505;SDS011;18955;51.224;8.482;2023-07-22T08:13:33;16.05;;;9.13;;
32505;SDS011;18955;51.224;8.482;2023-07-22T08:16:03;13.30;;;8.55;;
32505;SDS011;18955;51.224;8.482;2023-07-22T08:18:31;13.82;;;9.15;;
32505;SDS011;18955;51.224;8.482;2023-07-22T08:20:58;14.82;;;8.77;;
32505;SDS011;18955;51.224;8.482;2023-07-22T08:23:28;14.55;;;9.35;;
32505;SDS011;18955;51.224;8.482;2023-07-22T08:25:55;18.13;;;9.00;;
32505;SDS011;18955;51.224;8.482;2023-07-22T08:28:21;14.13;;;8.85;;
32505;SDS011;18955;51.224;8.482;2023-07-22T08:30:48;15.65;;;9.05;;
32505;SDS011;18955;51.224;8.482;2023-07-22T08:33:14;13.80;;;9.05;;
32505;SDS011;18955;51.224;8.482;2023-07-22T08:35:42;15.95;;;9.13;;
32505;SDS011;18955;51.224;8.482;2023-07-22T08:38:08;12.77;;;8.07;;
32505;SDS011;18955;51.224;8.482;2023-07-22T08:40:35;16.02;;;8.48;;
32505;SDS011;18955;51.224;8.482;2023-07-22T08:43:02;14.85;;;8.77;;
32505;SDS011;18955;51.224;8.482;2023-07-22T08:45:32;13.98;;;8.93;;
32505;SDS011;18955;51.224;8.482;2023-07-22T08:48:06;14.82;;;8.52;;
32505;SDS011;18955;51.224;8.482;2023-07-22T08:50:45;12.25;;;8.35;;
32505;SDS011;18955;51.224;8.482;2023-07-22T08:53:17;14.65;;;8.35;;
32505;SDS011;18955;51.224;8.482;2023-07-22T08:55:45;17.05;;;9.48;;
32505;SDS011;18955;51.224;8.482;2023-07-22T08:58:13;15.65;;;9.13;;
32505;SDS011;18955;51.224;8.482;2023-07-22T09:00:40;15.40;;;9.10;;
32505;SDS011;18955;51.224;8.482;2023-07-22T09:03:06;11.00;;;7.57;;
32505;SDS011;18955;51.224;8.482;2023-07-22T09:05:34;17.90;;;8.20;;
32505;SDS011;18955;51.224;8.482;2023-07-22T09:08:02;12.63;;;7.78;;
32505;SDS011;18955;51.224;8.482;2023-07-22T09:10:29;13.77;;;8.68;;
32505;SDS011;18955;51.224;8.482;2023-07-22T09:12:57;13.18;;;8.02;;
32505;SDS011;18955;51.224;8.482;2023-07-22T09:15:25;14.88;;;8.10;;
32505;SDS011;18955;51.224;8.482;2023-07-22T09:17:52;13.07;;;8.38;;
32505;SDS011;18955;51.224;8.482;2023-07-22T09:20:19;10.85;;;7.88;;
32505;SDS011;18955;51.224;8.482;2023-07-22T09:22:47;13.02;;;7.22;;
32505;SDS011;18955;51.224;8.482;2023-07-22T09:25:16;18.27;;;8.07;;
32505;SDS011;18955;51.224;8.482;2023-07-22T09:27:45;13.98;;;7.47;;
32505;SDS011;18955;51.224;8.482;2023-07-22T09:30:32;12.45;;;7.32;;
32505;SDS011;18955;51.224;8.482;2023-07-22T09:33:01;12.25;;;7.18;;
32505;SDS011;18955;51.224;8.482;2023-07-22T09:35:43;9.90;;;6.85;;
32505;SDS011;18955;51.224;8.482;2023-07-22T09:38:11;14.35;;;7.97;;
32505;SDS011;18955;51.224;8.482;2023-07-22T09:43:05;16.08;;;7.95;;
32505;SDS011;18955;51.224;8.482;2023-07-22T09:45:34;13.02;;;7.47;;
32505;SDS011;18955;51.224;8.482;2023-07-22T09:48:01;10.93;;;7.28;;
32505;SDS011;18955;51.224;8.482;2023-07-22T09:50:27;13.05;;;7.38;;
32505;SDS011;18955;51.224;8.482;2023-07-22T09:55:22;9.75;;;6.82;;
32505;SDS011;18955;51.224;8.482;2023-07-22T09:57:51;10.77;;;7.72;;
32505;SDS011;18955;51.224;8.482;2023-07-22T10:00:19;8.27;;;6.38;;
32505;SDS011;18955;51.224;8.482;2023-07-22T10:02:48;10.95;;;6.57;;
32505;SDS011;18955;51.224;8.482;2023-07-22T10:05:16;5.47;;;4.47;;
32505;SDS011;18955;51.224;8.482;2023-07-22T10:07:47;13.40;;;6.60;;
32505;SDS011;18955;51.224;8.482;2023-07-22T10:10:16;8.30;;;5.78;;
32505;SDS011;18955;51.224;8.482;2023-07-22T10:12:47;9.75;;;5.72;;
32505;SDS011;18955;51.224;8.482;2023-07-22T10:15:13;11.90;;;6.30;;
32505;SDS011;18955;51.224;8.482;2023-07-22T10:17:41;12.75;;;6.30;;
32505;SDS011;18955;51.224;8.482;2023-07-22T10:20:09;10.30;;;5.75;;
32505;SDS011;18955;51.224;8.482;2023-07-22T10:22:41;10.32;;;6.25;;
32505;SDS011;18955;51.224;8.482;2023-07-22T10:25:08;9.10;;;5.65;;
32505;SDS011;18955;51.224;8.482;2023-07-22T10:27:37;9.02;;;5.68;;
32505;SDS011;18955;51.224;8.482;2023-07-22T10:30:05;7.57;;;5.22;;
32505;SDS011;18955;51.224;8.482;2023-07-22T10:32:36;8.27;;;5.55;;
32505;SDS011;18955;51.224;8.482;2023-07-22T10:35:07;9.07;;;5.63;;
32505;SDS011;18955;51.224;8.482;2023-07-22T10:37:38;9.18;;;5.57;;
32505;SDS011;18955;51.224;8.482;2023-07-22T10:42:58;10.90;;;5.60;;
32505;SDS011;18955;51.224;8.482;2023-07-22T10:45:26;8.02;;;5.68;;
32505;SDS011;18955;51.224;8.482;2023-07-22T10:48:07;7.75;;;5.28;;
32505;SDS011;18955;51.224;8.482;2023-07-22T10:50:51;8.85;;;5.18;;
32505;SDS011;18955;51.224;8.482;2023-07-22T11:06:39;7.55;;;5.18;;
32505;SDS011;18955;51.224;8.482;2023-07-22T11:14:39;7.88;;;4.65;;
32505;SDS011;18955;51.224;8.482;2023-07-22T11:17:10;8.90;;;4.40;;
32505;SDS011;18955;51.224;8.482;2023-07-22T11:19:36;9.02;;;4.68;;
32505;SDS011;18955;51.224;8.482;2023-07-22T11:22:04;6.63;;;4.47;;
32505;SDS011;18955;51.224;8.482;2023-07-22T11:24:32;5.97;;;4.68;;
32505;SDS011;18955;51.224;8.482;2023-07-22T11:27:04;5.90;;;4.30;;
32505;SDS011;18955;51.224;8.482;2023-07-22T11:29:32;6.72;;;4.38;;
32505;SDS011;18955;51.224;8.482;2023-07-22T11:31:58;4.38;;;3.25;;
32505;SDS011;18955;51.224;8.482;2023-07-22T11:34:25;8.90;;;4.38;;
32505;SDS011;18955;51.224;8.482;2023-07-22T11:36:52;6.20;;;3.55;;
32505;SDS011;18955;51.224;8.482;2023-07-22T11:39:20;6.15;;;3.65;;
32505;SDS011;18955;51.224;8.482;2023-07-22T11:41:48;3.53;;;3.20;;
32505;SDS011;18955;51.224;8.482;2023-07-22T11:44:16;6.03;;;3.25;;
32505;SDS011;18955;51.224;8.482;2023-07-22T11:46:54;4.38;;;3.00;;
32505;SDS011;18955;51.224;8.482;2023-07-22T11:49:30;7.07;;;3.47;;
32505;SDS011;18955;51.224;8.482;2023-07-22T11:51:58;3.22;;;2.95;;
32505;SDS011;18955;51.224;8.482;2023-07-22T11:54:29;3.28;;;2.72;;
32505;SDS011;18955;51.224;8.482;2023-07-22T11:56:57;4.82;;;3.35;;
32505;SDS011;18955;51.224;8.482;2023-07-22T11:59:35;4.43;;;2.67;;
32505;SDS011;18955;51.224;8.482;2023-07-22T12:02:03;6.10;;;2.78;;
32505;SDS011;18955;51.224;8.482;2023-07-22T12:04:33;3.30;;;2.83;;
32505;SDS011;18955;51.224;8.482;2023-07-22T12:07:00;5.55;;;2.75;;
32505;SDS011;18955;51.224;8.482;2023-07-22T12:11:56;3.38;;;3.08;;
32505;SDS011;18955;51.224;8.482;2023-07-22T12:14:24;4.55;;;2.83;;
32505;SDS011;18955;51.224;8.482;2023-07-22T12:16:59;3.30;;;2.88;;
32505;SDS011;18955;51.224;8.482;2023-07-22T12:19:27;3.33;;;2.78;;
32505;SDS011;18955;51.224;8.482;2023-07-22T12:21:54;4.10;;;2.70;;
32505;SDS011;18955;51.224;8.482;2023-07-22T12:24:20;2.55;;;2.15;;
32505;SDS011;18955;51.224;8.482;2023-07-22T12:26:47;4.80;;;3.45;;
32505;SDS011;18955;51.224;8.482;2023-07-22T12:29:13;3.17;;;2.80;;
32505;SDS011;18955;51.224;8.482;2023-07-22T12:31:39;4.03;;;2.78;;
32505;SDS011;18955;51.224;8.482;2023-07-22T12:34:05;3.53;;;3.20;;
32505;SDS011;18955;51.224;8.482;2023-07-22T12:36:31;3.35;;;3.03;;
32505;SDS011;18955;51.224;8.482;2023-07-22T12:38:57;4.32;;;3.10;;
32505;SDS011;18955;51.224;8.482;2023-07-22T12:41:24;9.02;;;3.60;;
32505;SDS011;18955;51.224;8.482;2023-07-22T12:43:50;5.18;;;2.63;;
32505;SDS011;18955;51.224;8.482;2023-07-22T12:46:17;7.05;;;3.00;;
32505;SDS011;18955;51.224;8.482;2023-07-22T12:48:43;4.25;;;3.30;;
32505;SDS011;18955;51.224;8.482;2023-07-22T12:51:09;3.95;;;3.03;;
32505;SDS011;18955;51.224;8.482;2023-07-22T12:53:36;7.25;;;3.20;;
32505;SDS011;18955;51.224;8.482;2023-07-22T12:56:02;5.57;;;3.10;;
32505;SDS011;18955;51.224;8.482;2023-07-22T13:00:54;3.78;;;3.28;;
32505;SDS011;18955;51.224;8.482;2023-07-22T13:03:21;5.20;;;3.47;;
32505;SDS011;18955;51.224;8.482;2023-07-22T13:05:47;5.82;;;3.80;;
32505;SDS011;18955;51.224;8.482;2023-07-22T13:08:13;5.82;;;3.38;;
32505;SDS011;18955;51.224;8.482;2023-07-22T13:10:39;3.60;;;2.83;;
32505;SDS011;18955;51.224;8.482;2023-07-22T13:13:09;4.90;;;3.45;;
32505;SDS011;18955;51.224;8.482;2023-07-22T13:15:36;5.70;;;3.55;;
32505;SDS011;18955;51.224;8.482;2023-07-22T13:18:02;5.53;;;3.75;;
32505;SDS011;18955;51.224;8.482;2023-07-22T13:20:29;3.33;;;2.88;;
32505;SDS011;18955;51.224;8.482;2023-07-22T13:22:55;3.90;;;3.50;;
32505;SDS011;18955;51.224;8.482;2023-07-22T13:25:21;3.33;;;2.40;;
32505;SDS011;18955;51.224;8.482;2023-07-22T13:27:47;7.38;;;3.28;;
32505;SDS011;18955;51.224;8.482;2023-07-22T13:30:14;7.07;;;3.60;;
32505;SDS011;18955;51.224;8.482;2023-07-22T13:32:40;3.45;;;2.42;;
32505;SDS011;18955;51.224;8.482;2023-07-22T13:35:06;9.48;;;3.95;;
32505;SDS011;18955;51.224;8.482;2023-07-22T13:37:34;6.28;;;3.80;;
32505;SDS011;18955;51.224;8.482;2023-07-22T13:40:01;7.57;;;3.78;;
32505;SDS011;18955;51.224;8.482;2023-07-22T13:42:30;5.50;;;3.67;;
32505;SDS011;18955;51.224;8.482;2023-07-22T13:44:56;3.20;;;2.70;;
32505;SDS011;18955;51.224;8.482;2023-07-22T13:47:22;5.53;;;3.80;;
32505;SDS011;18955;51.224;8.482;2023-07-22T13:49:49;3.63;;;3.28;;
32505;SDS011;18955;51.224;8.482;2023-07-22T13:52:15;8.63;;;2.55;;
32505;SDS011;18955;51.224;8.482;2023-07-22T13:54:41;5.70;;;3.50;;
32505;SDS011;18955;51.224;8.482;2023-07-22T13:57:07;5.13;;;2.55;;
32505;SDS011;18955;51.224;8.482;2023-07-22T13:59:33;4.03;;;3.63;;
32505;SDS011;18955;51.224;8.482;2023-07-22T14:02:00;11.70;;;4.10;;
32505;SDS011;18955;51.224;8.482;2023-07-22T14:04:26;5.35;;;3.75;;
32505;SDS011;18955;51.224;8.482;2023-07-22T14:06:52;4.18;;;3.63;;
32505;SDS011;18955;51.224;8.482;2023-07-22T14:09:18;5.32;;;3.20;;
32505;SDS011;18955;51.224;8.482;2023-07-22T14:11:44;4.63;;;4.10;;
32505;SDS011;18955;51.224;8.482;2023-07-22T14:14:10;6.85;;;3.67;;
32505;SDS011;18955;51.224;8.482;2023-07-22T14:16:36;3.53;;;3.03;;
32505;SDS011;18955;51.224;8.482;2023-07-22T14:19:03;6.35;;;3.22;;
32505;SDS011;18955;51.224;8.482;2023-07-22T14:21:29;7.00;;;3.35;;
32505;SDS011;18955;51.224;8.482;2023-07-22T14:23:55;4.20;;;3.20;;
32505;SDS011;18955;51.224;8.482;2023-07-22T14:26:21;6.45;;;3.45;;
32505;SDS011;18955;51.224;8.482;2023-07-22T14:28:47;7.63;;;3.22;;
32505;SDS011;18955;51.224;8.482;2023-07-22T14:31:13;4.55;;;2.80;;
32505;SDS011;18955;51.224;8.482;2023-07-22T14:33:40;3.42;;;2.38;;
32505;SDS011;18955;51.224;8.482;2023-07-22T14:36:06;3.60;;;2.95;;
32505;SDS011;18955;51.224;8.482;2023-07-22T14:38:32;4.57;;;3.17;;
32505;SDS011;18955;51.224;8.482;2023-07-22T14:40:58;4.88;;;3.30;;
32505;SDS011;18955;51.224;8.482;2023-07-22T14:43:24;4.05;;;2.55;;
32505;SDS011;18955;51.224;8.482;2023-07-22T14:45:52;3.42;;;2.47;;
32505;SDS011;18955;51.224;8.482;2023-07-22T14:48:20;2.83;;;2.50;;
32505;SDS011;18955;51.224;8.482;2023-07-22T14:50:46;4.13;;;3.05;;
32505;SDS011;18955;51.224;8.482;2023-07-22T14:53:12;3.42;;;2.80;;
32505;SDS011;18955;51.224;8.482;2023-07-22T14:55:38;3.83;;;3.30;;
32505;SDS011;18955;51.224;8.482;2023-07-22T14:58:04;5.90;;;2.80;;
32505;SDS011;18955;51.224;8.482;2023-07-22T15:00:31;5.25;;;2.65;;
32505;SDS011;18955;51.224;8.482;2023-07-22T15:02:57;7.38;;;2.42;;
32505;SDS011;18955;51.224;8.482;2023-07-22T15:05:23;4.03;;;2.80;;
32505;SDS011;18955;51.224;8.482;2023-07-22T15:10:16;4.40;;;2.92;;
32505;SDS011;18955;51.224;8.482;2023-07-22T15:12:42;4.90;;;2.72;;
32505;SDS011;18955;51.224;8.482;2023-07-22T15:15:08;3.15;;;2.47;;
32505;SDS011;18955;51.224;8.482;2023-07-22T15:17:36;3.28;;;2.40;;
32505;SDS011;18955;51.224;8.482;2023-07-22T15:20:03;3.80;;;2.40;;
32505;SDS011;18955;51.224;8.482;2023-07-22T15:24:56;3.05;;;2.47;;
32505;SDS011;18955;51.224;8.482;2023-07-22T15:27:22;3.83;;;2.30;;
32505;SDS011;18955;51.224;8.482;2023-07-22T15:29:48;3.80;;;1.95;;
32505;SDS011;18955;51.224;8.482;2023-07-22T15:34:41;2.85;;;2.40;;
32505;SDS011;18955;51.224;8.482;2023-07-22T15:37:07;2.95;;;2.50;;